sensor_id;sensor_type;location;lat;lon;timestamp;P1;durP1;ratioP1;P2;durP2;ratioP2
23236;SDS011;11787;52.018;8.570;2023-03-19T00:01:25;21.45;;;18.92;;
23236;SDS011;11787;52.018;8.570;2023-03-19T00:03:51;18.73;;;16.73;;
23236;SDS011;11787;52.018;8.570;2023-03-19T00:06:17;20.73;;;18.55;;
23236;SDS011;11787;52.018;8.570;2023-03-19T00:08:43;18.65;;;16.67;;
23236;SDS011;11787;52.018;8.570;2023-03-19T00:11:09;21.50;;;18.98;;
23236;SDS011;11787;52.018;8.570;2023-03-19T00:13:36;21.17;;;18.10;;
23236;SDS011;11787;52.018;8.570;2023-03-19T00:16:02;18.02;;;16.13;;
23236;SDS011;11787;52.018;8.570;2023-03-19T00:18:28;17.08;;;15.18;;
23236;SDS011;11787;52.018;8.570;2023-03-19T00:20:54;16.08;;;14.05;;
23236;SDS011;11787;52.018;8.570;2023-03-19T00:23:20;14.95;;;13.32;;
23236;SDS011;11787;52.018;8.570;2023-03-19T00:25:45;13.68;;;12.27;;
23236;SDS011;11787;52.018;8.570;2023-03-19T00:28:11;14.48;;;13.10;;
23236;SDS011;11787;52.018;8.570;2023-03-19T00:30:37;14.63;;;13.13;;
23236;SDS011;11787;52.018;8.570;2023-03-19T00:33:03;13.77;;;12.32;;
23236;SDS011;11787;52.018;8.570;2023-03-19T00:35:28;13.75;;;12.10;;
23236;SDS011;11787;52.018;8.570;2023-03-19T00:37:54;15.02;;;13.43;;
23236;SDS011;11787;52.018;8.570;2023-03-19T00:40:19;14.90;;;12.02;;
23236;SDS011;11787;52.018;8.570;2023-03-19T00:42:45;12.85;;;11.55;;
23236;SDS011;11787;52.018;8.570;2023-03-19T00:45:11;14.48;;;12.98;;
23236;SDS011;11787;52.018;8.570;2023-03-19T00:47:37;12.15;;;10.85;;
23236;SDS011;11787;52.018;8.570;2023-03-19T00:50:03;12.23;;;11.02;;
23236;SDS011;11787;52.018;8.570;2023-03-19T00:52:30;12.32;;;11.13;;
23236;SDS011;11787;52.018;8.570;2023-03-19T00:54:56;11.82;;;9.80;;
23236;SDS011;11787;52.018;8.570;2023-03-19T00:57:21;13.30;;;12.00;;
23236;SDS011;11787;52.018;8.570;2023-03-19T00:59:47;15.30;;;13.48;;
23236;SDS011;11787;52.018;8.570;2023-03-19T01:02:13;15.25;;;12.80;;
23236;SDS011;11787;52.018;8.570;2023-03-19T01:04:39;18.30;;;13.77;;
23236;SDS011;11787;52.018;8.570;2023-03-19T01:07:04;17.45;;;15.20;;
23236;SDS011;11787;52.018;8.570;2023-03-19T01:09:30;17.10;;;15.25;;
23236;SDS011;11787;52.018;8.570;2023-03-19T01:11:56;22.70;;;18.58;;
23236;SDS011;11787;52.018;8.570;2023-03-19T01:14:22;24.05;;;16.63;;
23236;SDS011;11787;52.018;8.570;2023-03-19T01:16:48;24.70;;;18.63;;
23236;SDS011;11787;52.018;8.570;2023-03-19T01:19:14;24.30;;;16.52;;
23236;SDS011;11787;52.018;8.570;2023-03-19T01:21:40;23.83;;;16.38;;
23236;SDS011;11787;52.018;8.570;2023-03-19T01:24:10;29.77;;;20.10;;
23236;SDS011;11787;52.018;8.570;2023-03-19T01:26:36;24.23;;;16.98;;
23236;SDS011;11787;52.018;8.570;2023-03-19T01:29:02;19.52;;;13.90;;
23236;SDS011;11787;52.018;8.570;2023-03-19T01:31:28;14.35;;;11.20;;
23236;SDS011;11787;52.018;8.570;2023-03-19T01:33:54;17.58;;;12.65;;
23236;SDS011;11787;52.018;8.570;2023-03-19T01:36:20;18.27;;;13.05;;
23236;SDS011;11787;52.018;8.570;2023-03-19T01:38:46;16.23;;;12.73;;
23236;SDS011;11787;52.018;8.570;2023-03-19T01:41:12;14.63;;;11.15;;
23236;SDS011;11787;52.018;8.570;2023-03-19T01:43:37;11.77;;;9.02;;
23236;SDS011;11787;52.018;8.570;2023-03-19T01:46:05;12.55;;;8.30;;
23236;SDS011;11787;52.018;8.570;2023-03-19T01:48:38;10.40;;;7.13;;
23236;SDS011;11787;52.018;8.570;2023-03-19T01:51:07;10.13;;;6.53;;
23236;SDS011;11787;52.018;8.570;2023-03-19T01:53:36;8.48;;;5.13;;
23236;SDS011;11787;52.018;8.570;2023-03-19T01:56:11;6.95;;;4.65;;
23236;SDS011;11787;52.018;8.570;2023-03-19T01:58:42;10.07;;;5.20;;
23236;SDS011;11787;52.018;8.570;2023-03-19T02:01:10;6.90;;;4.57;;
23236;SDS011;11787;52.018;8.570;2023-03-19T02:03:36;7.72;;;4.78;;
23236;SDS011;11787;52.018;8.570;2023-03-19T02:06:03;6.07;;;4.07;;
23236;SDS011;11787;52.018;8.570;2023-03-19T02:08:29;6.60;;;4.07;;
23236;SDS011;11787;52.018;8.570;2023-03-19T02:10:56;6.88;;;4.05;;
23236;SDS011;11787;52.018;8.570;2023-03-19T02:13:24;6.57;;;3.60;;
23236;SDS011;11787;52.018;8.570;2023-03-19T02:15:51;7.07;;;3.75;;
23236;SDS011;11787;52.018;8.570;2023-03-19T02:18:16;6.15;;;4.00;;
23236;SDS011;11787;52.018;8.570;2023-03-19T02:20:44;5.10;;;3.63;;
23236;SDS011;11787;52.018;8.570;2023-03-19T02:28:13;5.55;;;3.20;;
23236;SDS011;11787;52.018;8.570;2023-03-19T02:30:41;6.22;;;3.30;;
23236;SDS011;11787;52.018;8.570;2023-03-19T02:33:11;5.70;;;4.10;;
23236;SDS011;11787;52.018;8.570;2023-03-19T02:35:37;6.85;;;4.90;;
23236;SDS011;11787;52.018;8.570;2023-03-19T02:38:04;6.45;;;4.50;;
23236;SDS011;11787;52.018;8.570;2023-03-19T02:40:33;4.70;;;4.07;;
23236;SDS011;11787;52.018;8.570;2023-03-19T02:43:03;7.68;;;5.47;;
23236;SDS011;11787;52.018;8.570;2023-03-19T02:45:29;7.45;;;6.13;;
23236;SDS011;11787;52.018;8.570;2023-03-19T02:47:57;7.65;;;5.90;;
23236;SDS011;11787;52.018;8.570;2023-03-19T02:50:23;7.90;;;6.38;;
23236;SDS011;11787;52.018;8.570;2023-03-19T02:52:49;10.30;;;6.40;;
23236;SDS011;11787;52.018;8.570;2023-03-19T02:55:15;8.13;;;6.38;;
23236;SDS011;11787;52.018;8.570;2023-03-19T02:57:42;8.25;;;6.35;;
23236;SDS011;11787;52.018;8.570;2023-03-19T03:00:10;12.45;;;9.77;;
23236;SDS011;11787;52.018;8.570;2023-03-19T03:02:36;11.50;;;8.20;;
23236;SDS011;11787;52.018;8.570;2023-03-19T03:05:03;11.35;;;8.80;;
23236;SDS011;11787;52.018;8.570;2023-03-19T03:07:30;9.50;;;8.43;;
23236;SDS011;11787;52.018;8.570;2023-03-19T03:09:56;9.57;;;8.38;;
23236;SDS011;11787;52.018;8.570;2023-03-19T03:12:22;10.18;;;7.97;;
23236;SDS011;11787;52.018;8.570;2023-03-19T03:14:47;8.60;;;7.18;;
23236;SDS011;11787;52.018;8.570;2023-03-19T03:17:13;8.82;;;6.97;;
23236;SDS011;11787;52.018;8.570;2023-03-19T03:19:39;8.18;;;7.32;;
23236;SDS011;11787;52.018;8.570;2023-03-19T03:22:06;10.32;;;7.68;;
23236;SDS011;11787;52.018;8.570;2023-03-19T03:24:31;10.15;;;7.22;;
23236;SDS011;11787;52.018;8.570;2023-03-19T03:26:57;8.75;;;6.65;;
23236;SDS011;11787;52.018;8.570;2023-03-19T03:29:23;8.00;;;7.20;;
23236;SDS011;11787;52.018;8.570;2023-03-19T03:31:48;8.88;;;6.30;;
23236;SDS011;11787;52.018;8.570;2023-03-19T03:34:14;7.95;;;6.53;;
23236;SDS011;11787;52.018;8.570;2023-03-19T03:36:40;8.57;;;6.25;;
23236;SDS011;11787;52.018;8.570;2023-03-19T03:39:06;9.88;;;7.05;;
23236;SDS011;11787;52.018;8.570;2023-03-19T03:41:31;6.85;;;6.15;;
23236;SDS011;11787;52.018;8.570;2023-03-19T03:43:57;7.70;;;6.35;;
23236;SDS011;11787;52.018;8.570;2023-03-19T03:46:22;6.78;;;5.78;;
23236;SDS011;11787;52.018;8.570;2023-03-19T03:48:48;8.02;;;6.65;;
23236;SDS011;11787;52.018;8.570;2023-03-19T03:51:15;7.40;;;6.18;;
23236;SDS011;11787;52.018;8.570;2023-03-19T03:53:42;7.47;;;6.63;;
23236;SDS011;11787;52.018;8.570;2023-03-19T03:56:07;8.95;;;6.40;;
23236;SDS011;11787;52.018;8.570;2023-03-19T03:58:33;7.28;;;5.78;;
23236;SDS011;11787;52.018;8.570;2023-03-19T04:00:59;7.10;;;6.40;;
23236;SDS011;11787;52.018;8.570;2023-03-19T04:03:25;7.30;;;5.90;;
23236;SDS011;11787;52.018;8.570;2023-03-19T04:05:51;9.32;;;6.28;;
23236;SDS011;11787;52.018;8.570;2023-03-19T04:08:16;6.97;;;6.20;;
23236;SDS011;11787;52.018;8.570;2023-03-19T04:10:42;8.82;;;5.90;;
23236;SDS011;11787;52.018;8.570;2023-03-19T04:13:09;10.25;;;6.82;;
23236;SDS011;11787;52.018;8.570;2023-03-19T04:15:35;8.48;;;6.88;;
23236;SDS011;11787;52.018;8.570;2023-03-19T04:18:01;9.02;;;6.80;;
23236;SDS011;11787;52.018;8.570;2023-03-19T04:20:27;7.10;;;6.00;;
23236;SDS011;11787;52.018;8.570;2023-03-19T04:22:53;7.43;;;5.78;;
23236;SDS011;11787;52.018;8.570;2023-03-19T04:25:18;8.25;;;5.30;;
23236;SDS011;11787;52.018;8.570;2023-03-19T04:27:44;7.93;;;6.05;;
23236;SDS011;11787;52.018;8.570;2023-03-19T04:30:10;6.30;;;5.10;;
23236;SDS011;11787;52.018;8.570;2023-03-19T04:32:36;8.75;;;5.10;;
23236;SDS011;11787;52.018;8.570;2023-03-19T04:35:02;6.80;;;4.88;;
23236;SDS011;11787;52.018;8.570;2023-03-19T04:37:28;5.97;;;5.03;;
23236;SDS011;11787;52.018;8.570;2023-03-19T04:39:54;6.63;;;4.30;;
23236;SDS011;11787;52.018;8.570;2023-03-19T04:42:20;6.82;;;5.00;;
23236;SDS011;11787;52.018;8.570;2023-03-19T04:44:46;6.55;;;5.20;;
23236;SDS011;11787;52.018;8.570;2023-03-19T04:47:11;6.55;;;5.20;;
23236;SDS011;11787;52.018;8.570;2023-03-19T04:49:37;6.30;;;5.13;;
23236;SDS011;11787;52.018;8.570;2023-03-19T04:52:03;6.55;;;4.70;;
23236;SDS011;11787;52.018;8.570;2023-03-19T04:54:28;8.60;;;4.85;;
23236;SDS011;11787;52.018;8.570;2023-03-19T04:56:54;6.57;;;4.78;;
23236;SDS011;11787;52.018;8.570;2023-03-19T04:59:20;6.85;;;4.22;;
23236;SDS011;11787;52.018;8.570;2023-03-19T05:01:46;5.88;;;4.20;;
23236;SDS011;11787;52.018;8.570;2023-03-19T05:04:11;5.57;;;4.35;;
23236;SDS011;11787;52.018;8.570;2023-03-19T05:06:38;8.00;;;4.78;;
23236;SDS011;11787;52.018;8.570;2023-03-19T05:09:04;5.25;;;4.45;;
23236;SDS011;11787;52.018;8.570;2023-03-19T05:11:30;5.10;;;3.90;;
23236;SDS011;11787;52.018;8.570;2023-03-19T05:13:56;7.60;;;3.85;;
23236;SDS011;11787;52.018;8.570;2023-03-19T05:16:21;4.72;;;3.90;;
23236;SDS011;11787;52.018;8.570;2023-03-19T05:18:47;6.20;;;3.85;;
23236;SDS011;11787;52.018;8.570;2023-03-19T05:21:13;4.68;;;3.53;;
23236;SDS011;11787;52.018;8.570;2023-03-19T05:23:39;4.88;;;3.30;;
23236;SDS011;11787;52.018;8.570;2023-03-19T05:26:05;3.53;;;3.10;;
23236;SDS011;11787;52.018;8.570;2023-03-19T05:28:32;6.78;;;3.80;;
23236;SDS011;11787;52.018;8.570;2023-03-19T05:30:58;4.85;;;3.55;;
23236;SDS011;11787;52.018;8.570;2023-03-19T05:33:24;3.85;;;2.78;;
23236;SDS011;11787;52.018;8.570;2023-03-19T05:35:50;3.70;;;2.92;;
23236;SDS011;11787;52.018;8.570;2023-03-19T05:38:15;5.45;;;2.58;;
23236;SDS011;11787;52.018;8.570;2023-03-19T05:40:41;3.63;;;2.97;;
23236;SDS011;11787;52.018;8.570;2023-03-19T05:43:08;3.72;;;2.92;;
23236;SDS011;11787;52.018;8.570;2023-03-19T05:45:34;5.55;;;3.60;;
23236;SDS011;11787;52.018;8.570;2023-03-19T05:48:01;3.55;;;2.80;;
23236;SDS011;11787;52.018;8.570;2023-03-19T05:50:27;4.35;;;2.83;;
23236;SDS011;11787;52.018;8.570;2023-03-19T05:52:53;3.72;;;2.38;;
23236;SDS011;11787;52.018;8.570;2023-03-19T05:55:19;3.53;;;2.92;;
23236;SDS011;11787;52.018;8.570;2023-03-19T05:57:45;4.03;;;2.90;;
23236;SDS011;11787;52.018;8.570;2023-03-19T06:00:11;6.00;;;2.90;;
23236;SDS011;11787;52.018;8.570;2023-03-19T06:02:38;4.88;;;2.90;;
23236;SDS011;11787;52.018;8.570;2023-03-19T06:05:03;3.70;;;3.00;;
23236;SDS011;11787;52.018;8.570;2023-03-19T06:07:30;5.22;;;2.60;;
23236;SDS011;11787;52.018;8.570;2023-03-19T06:09:56;5.35;;;3.20;;
23236;SDS011;11787;52.018;8.570;2023-03-19T06:12:21;5.93;;;3.38;;
23236;SDS011;11787;52.018;8.570;2023-03-19T06:14:47;8.13;;;3.25;;
23236;SDS011;11787;52.018;8.570;2023-03-19T06:17:13;3.75;;;2.70;;
23236;SDS011;11787;52.018;8.570;2023-03-19T06:19:39;4.32;;;2.88;;
23236;SDS011;11787;52.018;8.570;2023-03-19T06:22:04;3.22;;;2.65;;
23236;SDS011;11787;52.018;8.570;2023-03-19T06:24:30;2.80;;;2.47;;
23236;SDS011;11787;52.018;8.570;2023-03-19T06:26:56;4.53;;;2.80;;
23236;SDS011;11787;52.018;8.570;2023-03-19T06:29:21;3.97;;;2.78;;
23236;SDS011;11787;52.018;8.570;2023-03-19T06:31:47;4.65;;;2.78;;
23236;SDS011;11787;52.018;8.570;2023-03-19T06:34:12;4.72;;;2.80;;
23236;SDS011;11787;52.018;8.570;2023-03-19T06:36:38;5.38;;;2.65;;
23236;SDS011;11787;52.018;8.570;2023-03-19T06:39:04;4.20;;;2.80;;
23236;SDS011;11787;52.018;8.570;2023-03-19T06:41:29;5.18;;;2.97;;
23236;SDS011;11787;52.018;8.570;2023-03-19T06:43:56;6.22;;;2.53;;
23236;SDS011;11787;52.018;8.570;2023-03-19T06:46:21;4.90;;;2.20;;
23236;SDS011;11787;52.018;8.570;2023-03-19T06:48:48;3.08;;;2.33;;
23236;SDS011;11787;52.018;8.570;2023-03-19T06:51:13;4.43;;;2.60;;
23236;SDS011;11787;52.018;8.570;2023-03-19T06:53:39;6.55;;;3.45;;
23236;SDS011;11787;52.018;8.570;2023-03-19T06:56:04;4.90;;;3.40;;
23236;SDS011;11787;52.018;8.570;2023-03-19T06:58:30;7.20;;;4.10;;
23236;SDS011;11787;52.018;8.570;2023-03-19T07:00:56;16.80;;;7.20;;
23236;SDS011;11787;52.018;8.570;2023-03-19T07:03:22;8.63;;;5.05;;
23236;SDS011;11787;52.018;8.570;2023-03-19T07:05:51;12.60;;;6.90;;
23236;SDS011;11787;52.018;8.570;2023-03-19T07:08:17;20.08;;;11.00;;
23236;SDS011;11787;52.018;8.570;2023-03-19T07:10:42;26.85;;;12.65;;
23236;SDS011;11787;52.018;8.570;2023-03-19T07:13:08;32.55;;;16.65;;
23236;SDS011;11787;52.018;8.570;2023-03-19T07:15:34;24.27;;;14.27;;
23236;SDS011;11787;52.018;8.570;2023-03-19T07:18:00;20.90;;;10.57;;
23236;SDS011;11787;52.018;8.570;2023-03-19T07:20:26;8.27;;;4.93;;
23236;SDS011;11787;52.018;8.570;2023-03-19T07:22:52;9.07;;;3.55;;
23236;SDS011;11787;52.018;8.570;2023-03-19T07:25:18;6.32;;;2.53;;
23236;SDS011;11787;52.018;8.570;2023-03-19T07:27:43;5.97;;;2.30;;
23236;SDS011;11787;52.018;8.570;2023-03-19T07:30:10;5.88;;;2.20;;
23236;SDS011;11787;52.018;8.570;2023-03-19T07:32:36;4.03;;;1.90;;
23236;SDS011;11787;52.018;8.570;2023-03-19T07:35:03;4.00;;;2.00;;
23236;SDS011;11787;52.018;8.570;2023-03-19T07:37:30;3.72;;;1.83;;
23236;SDS011;11787;52.018;8.570;2023-03-19T07:39:55;5.53;;;1.92;;
23236;SDS011;11787;52.018;8.570;2023-03-19T07:42:21;4.45;;;1.90;;
23236;SDS011;11787;52.018;8.570;2023-03-19T07:44:47;5.38;;;2.42;;
23236;SDS011;11787;52.018;8.570;2023-03-19T07:47:12;3.90;;;1.90;;
23236;SDS011;11787;52.018;8.570;2023-03-19T07:49:38;3.83;;;2.03;;
23236;SDS011;11787;52.018;8.570;2023-03-19T07:52:04;3.40;;;2.25;;
23236;SDS011;11787;52.018;8.570;2023-03-19T07:54:29;4.40;;;2.10;;
23236;SDS011;11787;52.018;8.570;2023-03-19T07:56:55;5.30;;;2.20;;
23236;SDS011;11787;52.018;8.570;2023-03-19T07:59:21;5.25;;;2.10;;
23236;SDS011;11787;52.018;8.570;2023-03-19T08:01:46;4.88;;;1.77;;
23236;SDS011;11787;52.018;8.570;2023-03-19T08:04:12;4.70;;;1.83;;
23236;SDS011;11787;52.018;8.570;2023-03-19T08:06:37;3.55;;;2.20;;
23236;SDS011;11787;52.018;8.570;2023-03-19T08:09:04;5.55;;;2.28;;
23236;SDS011;11787;52.018;8.570;2023-03-19T08:11:30;5.32;;;2.15;;
23236;SDS011;11787;52.018;8.570;2023-03-19T08:13:55;5.60;;;2.35;;
23236;SDS011;11787;52.018;8.570;2023-03-19T08:16:21;5.00;;;2.65;;
23236;SDS011;11787;52.018;8.570;2023-03-19T08:18:46;5.28;;;2.53;;
23236;SDS011;11787;52.018;8.570;2023-03-19T08:21:12;5.05;;;2.80;;
23236;SDS011;11787;52.018;8.570;2023-03-19T08:23:37;6.15;;;3.30;;
23236;SDS011;11787;52.018;8.570;2023-03-19T08:26:03;8.18;;;3.42;;
23236;SDS011;11787;52.018;8.570;2023-03-19T08:28:29;4.10;;;2.40;;
23236;SDS011;11787;52.018;8.570;2023-03-19T08:30:54;3.58;;;2.20;;
23236;SDS011;11787;52.018;8.570;2023-03-19T08:33:20;3.97;;;2.00;;
23236;SDS011;11787;52.018;8.570;2023-03-19T08:35:46;6.25;;;2.30;;
23236;SDS011;11787;52.018;8.570;2023-03-19T08:38:11;6.28;;;2.30;;
23236;SDS011;11787;52.018;8.570;2023-03-19T08:40:37;4.88;;;2.38;;
23236;SDS011;11787;52.018;8.570;2023-03-19T08:43:03;4.13;;;2.35;;
23236;SDS011;11787;52.018;8.570;2023-03-19T08:45:28;3.63;;;2.00;;
23236;SDS011;11787;52.018;8.570;2023-03-19T08:47:55;4.72;;;2.38;;
23236;SDS011;11787;52.018;8.570;2023-03-19T08:50:22;6.22;;;2.30;;
23236;SDS011;11787;52.018;8.570;2023-03-19T08:52:47;4.82;;;2.38;;
23236;SDS011;11787;52.018;8.570;2023-03-19T08:55:13;6.63;;;2.60;;
23236;SDS011;11787;52.018;8.570;2023-03-19T08:57:40;5.35;;;2.25;;
23236;SDS011;11787;52.018;8.570;2023-03-19T09:00:06;5.85;;;2.92;;
23236;SDS011;11787;52.018;8.570;2023-03-19T09:02:32;5.47;;;2.50;;
23236;SDS011;11787;52.018;8.570;2023-03-19T09:04:57;6.32;;;2.92;;
23236;SDS011;11787;52.018;8.570;2023-03-19T09:07:23;5.13;;;2.75;;
23236;SDS011;11787;52.018;8.570;2023-03-19T09:09:49;7.72;;;3.03;;
23236;SDS011;11787;52.018;8.570;2023-03-19T09:12:15;4.68;;;2.60;;
23236;SDS011;11787;52.018;8.570;2023-03-19T09:14:41;4.65;;;2.72;;
23236;SDS011;11787;52.018;8.570;2023-03-19T09:17:08;4.53;;;2.60;;
23236;SDS011;11787;52.018;8.570;2023-03-19T09:19:34;8.18;;;2.70;;
23236;SDS011;11787;52.018;8.570;2023-03-19T09:22:00;4.00;;;2.92;;
23236;SDS011;11787;52.018;8.570;2023-03-19T09:24:26;4.35;;;3.08;;
23236;SDS011;11787;52.018;8.570;2023-03-19T09:26:52;5.53;;;3.13;;
23236;SDS011;11787;52.018;8.570;2023-03-19T09:29:18;6.45;;;3.83;;
23236;SDS011;11787;52.018;8.570;2023-03-19T09:31:43;6.80;;;3.72;;
23236;SDS011;11787;52.018;8.570;2023-03-19T09:34:09;10.43;;;3.42;;
23236;SDS011;11787;52.018;8.570;2023-03-19T09:36:35;7.53;;;3.80;;
23236;SDS011;11787;52.018;8.570;2023-03-19T09:39:02;4.88;;;3.42;;
23236;SDS011;11787;52.018;8.570;2023-03-19T09:41:48;5.03;;;3.33;;
23236;SDS011;11787;52.018;8.570;2023-03-19T09:44:34;5.82;;;3.40;;
23236;SDS011;11787;52.018;8.570;2023-03-19T09:49:56;4.30;;;3.58;;
23236;SDS011;11787;52.018;8.570;2023-03-19T09:57:59;5.45;;;3.28;;
23236;SDS011;11787;52.018;8.570;2023-03-19T10:00:29;7.78;;;3.97;;
23236;SDS011;11787;52.018;8.570;2023-03-19T10:14:22;5.93;;;3.33;;
23236;SDS011;11787;52.018;8.570;2023-03-19T10:17:12;5.60;;;3.58;;
23236;SDS011;11787;52.018;8.570;2023-03-19T10:19:44;4.93;;;3.88;;
23236;SDS011;11787;52.018;8.570;2023-03-19T10:22:15;5.45;;;4.07;;
23236;SDS011;11787;52.018;8.570;2023-03-19T10:24:52;5.55;;;3.90;;
23236;SDS011;11787;52.018;8.570;2023-03-19T10:27:21;7.45;;;4.57;;
23236;SDS011;11787;52.018;8.570;2023-03-19T10:29:52;5.85;;;3.83;;
23236;SDS011;11787;52.018;8.570;2023-03-19T10:34:51;5.10;;;3.80;;
23236;SDS011;11787;52.018;8.570;2023-03-19T10:37:25;4.97;;;3.85;;
23236;SDS011;11787;52.018;8.570;2023-03-19T10:39:54;4.72;;;4.20;;
23236;SDS011;11787;52.018;8.570;2023-03-19T10:43:05;4.88;;;3.92;;
23236;SDS011;11787;52.018;8.570;2023-03-19T10:45:30;5.18;;;3.95;;
23236;SDS011;11787;52.018;8.570;2023-03-19T10:48:00;7.50;;;3.80;;
23236;SDS011;11787;52.018;8.570;2023-03-19T10:52:59;5.07;;;4.03;;
23236;SDS011;11787;52.018;8.570;2023-03-19T10:55:52;5.07;;;4.25;;
23236;SDS011;11787;52.018;8.570;2023-03-19T10:58:21;6.18;;;4.50;;
23236;SDS011;11787;52.018;8.570;2023-03-19T11:00:54;6.55;;;5.05;;
23236;SDS011;11787;52.018;8.570;2023-03-19T11:03:33;6.30;;;5.05;;
23236;SDS011;11787;52.018;8.570;2023-03-19T11:06:05;6.43;;;4.80;;
23236;SDS011;11787;52.018;8.570;2023-03-19T11:08:38;5.93;;;4.95;;
23236;SDS011;11787;52.018;8.570;2023-03-19T11:11:03;6.65;;;5.20;;
23236;SDS011;11787;52.018;8.570;2023-03-19T11:13:29;4.97;;;4.45;;
23236;SDS011;11787;52.018;8.570;2023-03-19T11:15:58;5.30;;;4.43;;
23236;SDS011;11787;52.018;8.570;2023-03-19T11:18:28;6.50;;;4.75;;
23236;SDS011;11787;52.018;8.570;2023-03-19T11:21:37;5.15;;;4.65;;
23236;SDS011;11787;52.018;8.570;2023-03-19T11:23:52;4.72;;;4.28;;
23236;SDS011;11787;52.018;8.570;2023-03-19T11:26:24;4.20;;;3.80;;
23236;SDS011;11787;52.018;8.570;2023-03-19T11:28:52;3.95;;;3.05;;
23236;SDS011;11787;52.018;8.570;2023-03-19T11:39:17;4.75;;;3.60;;
23236;SDS011;11787;52.018;8.570;2023-03-19T11:41:48;4.53;;;3.70;;
23236;SDS011;11787;52.018;8.570;2023-03-19T11:53:08;5.72;;;3.63;;
23236;SDS011;11787;52.018;8.570;2023-03-19T11:55:49;4.80;;;4.07;;
23236;SDS011;11787;52.018;8.570;2023-03-19T12:00:52;5.20;;;4.00;;
23236;SDS011;11787;52.018;8.570;2023-03-19T12:08:36;4.72;;;3.80;;
23236;SDS011;11787;52.018;8.570;2023-03-19T12:22:01;4.13;;;3.17;;
23236;SDS011;11787;52.018;8.570;2023-03-19T12:27:41;4.07;;;3.67;;
23236;SDS011;11787;52.018;8.570;2023-03-19T12:30:17;4.18;;;3.78;;
23236;SDS011;11787;52.018;8.570;2023-03-19T12:33:06;4.65;;;3.83;;
23236;SDS011;11787;52.018;8.570;2023-03-19T12:35:48;4.65;;;3.70;;
23236;SDS011;11787;52.018;8.570;2023-03-19T12:38:22;5.60;;;3.83;;
23236;SDS011;11787;52.018;8.570;2023-03-19T12:41:06;4.47;;;3.72;;
23236;SDS011;11787;52.018;8.570;2023-03-19T12:49:14;4.25;;;3.85;;
23236;SDS011;11787;52.018;8.570;2023-03-19T12:51:54;4.70;;;4.15;;
23236;SDS011;11787;52.018;8.570;2023-03-19T12:54:37;5.07;;;4.57;;
23236;SDS011;11787;52.018;8.570;2023-03-19T13:15:28;7.10;;;6.43;;
23236;SDS011;11787;52.018;8.570;2023-03-19T13:23:37;7.07;;;5.70;;
23236;SDS011;11787;52.018;8.570;2023-03-19T13:26:06;7.97;;;5.88;;
23236;SDS011;11787;52.018;8.570;2023-03-19T13:28:36;7.00;;;6.30;;
23236;SDS011;11787;52.018;8.570;2023-03-19T13:31:20;6.75;;;6.05;;
23236;SDS011;11787;52.018;8.570;2023-03-19T13:34:02;7.40;;;5.75;;
23236;SDS011;11787;52.018;8.570;2023-03-19T13:36:30;5.95;;;5.30;;
23236;SDS011;11787;52.018;8.570;2023-03-19T13:39:02;6.93;;;6.28;;
23236;SDS011;11787;52.018;8.570;2023-03-19T13:43:57;6.97;;;6.28;;
23236;SDS011;11787;52.018;8.570;2023-03-19T13:46:34;6.45;;;5.85;;
23236;SDS011;11787;52.018;8.570;2023-03-19T13:52:00;7.47;;;6.68;;
23236;SDS011;11787;52.018;8.570;2023-03-19T13:57:03;8.07;;;6.97;;
23236;SDS011;11787;52.018;8.570;2023-03-19T13:59:42;7.38;;;6.68;;
23236;SDS011;11787;52.018;8.570;2023-03-19T14:05:31;6.80;;;6.20;;
23236;SDS011;11787;52.018;8.570;2023-03-19T14:07:42;7.40;;;6.68;;
23236;SDS011;11787;52.018;8.570;2023-03-19T14:10:16;7.27;;;6.57;;
23236;SDS011;11787;52.018;8.570;2023-03-19T14:13:00;7.75;;;6.70;;
23236;SDS011;11787;52.018;8.570;2023-03-19T14:15:28;7.50;;;6.80;;
23236;SDS011;11787;52.018;8.570;2023-03-19T14:18:01;7.70;;;6.93;;
23236;SDS011;11787;52.018;8.570;2023-03-19T14:20:34;8.07;;;6.85;;
23236;SDS011;11787;52.018;8.570;2023-03-19T14:29:04;6.38;;;5.78;;
23236;SDS011;11787;52.018;8.570;2023-03-19T14:39:43;6.60;;;6.00;;
23236;SDS011;11787;52.018;8.570;2023-03-19T14:45:27;8.20;;;6.93;;
23236;SDS011;11787;52.018;8.570;2023-03-19T14:55:32;7.28;;;6.40;;
23236;SDS011;11787;52.018;8.570;2023-03-19T14:57:59;8.65;;;6.95;;
23236;SDS011;11787;52.018;8.570;2023-03-19T15:00:25;9.15;;;8.18;;
23236;SDS011;11787;52.018;8.570;2023-03-19T15:02:51;8.10;;;7.13;;
23236;SDS011;11787;52.018;8.570;2023-03-19T15:05:50;8.30;;;7.50;;
23236;SDS011;11787;52.018;8.570;2023-03-19T15:08:14;8.52;;;7.57;;
23236;SDS011;11787;52.018;8.570;2023-03-19T15:16:14;7.35;;;6.65;;
23236;SDS011;11787;52.018;8.570;2023-03-19T15:18:48;7.82;;;6.80;;
23236;SDS011;11787;52.018;8.570;2023-03-19T15:21:14;7.80;;;6.90;;
23236;SDS011;11787;52.018;8.570;2023-03-19T15:23:40;7.60;;;6.25;;
23236;SDS011;11787;52.018;8.570;2023-03-19T15:26:10;8.07;;;6.03;;
23236;SDS011;11787;52.018;8.570;2023-03-19T15:28:49;8.48;;;6.18;;
23236;SDS011;11787;52.018;8.570;2023-03-19T15:31:16;5.55;;;4.80;;
23236;SDS011;11787;52.018;8.570;2023-03-19T15:33:43;4.50;;;3.83;;
23236;SDS011;11787;52.018;8.570;2023-03-19T15:38:35;3.83;;;2.88;;
23236;SDS011;11787;52.018;8.570;2023-03-19T15:41:23;3.47;;;1.98;;
23236;SDS011;11787;52.018;8.570;2023-03-19T15:43:50;3.15;;;2.13;;
23236;SDS011;11787;52.018;8.570;2023-03-19T15:46:17;2.38;;;2.17;;
23236;SDS011;11787;52.018;8.570;2023-03-19T15:48:51;3.15;;;2.35;;
23236;SDS011;11787;52.018;8.570;2023-03-19T15:51:34;2.90;;;2.60;;
23236;SDS011;11787;52.018;8.570;2023-03-19T15:54:00;3.42;;;2.58;;
23236;SDS011;11787;52.018;8.570;2023-03-19T15:56:27;3.83;;;3.15;;
23236;SDS011;11787;52.018;8.570;2023-03-19T15:58:54;5.88;;;3.08;;
23236;SDS011;11787;52.018;8.570;2023-03-19T16:01:21;3.72;;;3.17;;
23236;SDS011;11787;52.018;8.570;2023-03-19T16:03:53;3.67;;;3.00;;
23236;SDS011;11787;52.018;8.570;2023-03-19T16:06:23;3.55;;;2.78;;
23236;SDS011;11787;52.018;8.570;2023-03-19T16:08:52;4.30;;;3.13;;
23236;SDS011;11787;52.018;8.570;2023-03-19T16:11:35;4.63;;;3.30;;
23236;SDS011;11787;52.018;8.570;2023-03-19T16:16:49;3.22;;;2.75;;
23236;SDS011;11787;52.018;8.570;2023-03-19T16:22:11;3.47;;;3.17;;
23236;SDS011;11787;52.018;8.570;2023-03-19T16:24:40;3.40;;;3.08;;
23236;SDS011;11787;52.018;8.570;2023-03-19T16:27:10;3.50;;;3.20;;
23236;SDS011;11787;52.018;8.570;2023-03-19T16:29:39;3.92;;;3.38;;
23236;SDS011;11787;52.018;8.570;2023-03-19T16:42:38;3.83;;;3.20;;
23236;SDS011;11787;52.018;8.570;2023-03-19T16:47:42;5.22;;;3.17;;
23236;SDS011;11787;52.018;8.570;2023-03-19T16:50:09;3.72;;;3.30;;
23236;SDS011;11787;52.018;8.570;2023-03-19T16:52:35;3.65;;;2.90;;
23236;SDS011;11787;52.018;8.570;2023-03-19T16:55:02;3.38;;;2.90;;
23236;SDS011;11787;52.018;8.570;2023-03-19T16:57:29;5.40;;;2.60;;
23236;SDS011;11787;52.018;8.570;2023-03-19T16:59:55;3.10;;;2.70;;
23236;SDS011;11787;52.018;8.570;2023-03-19T17:02:22;3.25;;;2.92;;
23236;SDS011;11787;52.018;8.570;2023-03-19T17:04:47;2.72;;;2.53;;
23236;SDS011;11787;52.018;8.570;2023-03-19T17:07:13;3.83;;;2.97;;
23236;SDS011;11787;52.018;8.570;2023-03-19T17:09:39;3.20;;;2.90;;
23236;SDS011;11787;52.018;8.570;2023-03-19T17:12:05;4.72;;;2.90;;
23236;SDS011;11787;52.018;8.570;2023-03-19T17:14:36;3.47;;;3.17;;
23236;SDS011;11787;52.018;8.570;2023-03-19T17:17:02;3.42;;;3.13;;
23236;SDS011;11787;52.018;8.570;2023-03-19T17:19:34;4.18;;;3.60;;
23236;SDS011;11787;52.018;8.570;2023-03-19T17:22:00;3.40;;;3.10;;
23236;SDS011;11787;52.018;8.570;2023-03-19T17:24:30;5.47;;;3.45;;
23236;SDS011;11787;52.018;8.570;2023-03-19T17:26:58;3.80;;;3.40;;
23236;SDS011;11787;52.018;8.570;2023-03-19T17:29:26;4.63;;;4.00;;